CheckWX is a tool to help pilots better visualize weather data.  It is not intended as a substitute for an official pre-flight weather briefing.

08:52:05 UTC

PAEI METAR
Eielson AFB Airport
Fairbanks, Alaska, USA
Current

56 mins ago

PAEI 180756Z 03006KT 10SM BKN085 17/10 A2965 RMK AO2A SLP042 T01660095 $
Observed
Jun-18 @ 07:56 UTC
Wind
  • 030° at 6 KTS
Visibility
10 SM
Flight Rules
VFR
Cloud Levels
  • Broken at 8,500' AGL
Temperature
17°C / 63°F
Dewpoint
10°C / 50°F
Humidity
64%
Altimeter
29.65" Hg
Pressure
1004.02 hPa
Previous

2 hours ago

PAEI 180656Z 33004KT 10SM BKN090 15/12 A2965 RMK AO2A SLP043 T01530119 $
Observed
Jun-18 @ 06:56 UTC
Wind
  • 330° at 4 KTS
Visibility
10 SM
Flight Rules
VFR
Cloud Levels
  • Broken at 9,000' AGL
Temperature
15°C / 59°F
Dewpoint
12°C / 54°F
Humidity
82%
Altimeter
29.65" Hg
Pressure
1004.02 hPa
Previous

3 hours ago

PAEI 180556Z 00000KT 10SM FEW065 16/11 A2964 RMK AO2A RAB37E46 SLP040 P0000 60000 T01640107 10204 20164 53007 $
Observed
Jun-18 @ 05:56 UTC
Visibility
10 SM
Flight Rules
VFR
Cloud Levels
  • Few at 6,500' AGL
Temperature
16°C / 61°F
Dewpoint
11°C / 52°F
Humidity
72%
Altimeter
29.64" Hg
Pressure
1003.72 hPa
Current Rain
0.01"